sensor_id;sensor_type;location;lat;lon;timestamp;pressure;altitude;pressure_sealevel;temperature;humidity
15794;BME280;7999;51.208;4.244;2023-02-16T00:01:13;102439.63;;;4.89;100.00
15794;BME280;7999;51.208;4.244;2023-02-16T00:03:43;102439.69;;;4.90;100.00
15794;BME280;7999;51.208;4.244;2023-02-16T00:06:10;102431.59;;;4.83;100.00
15794;BME280;7999;51.208;4.244;2023-02-16T00:08:40;102434.78;;;4.77;100.00
15794;BME280;7999;51.208;4.244;2023-02-16T00:11:09;102437.41;;;4.79;100.00
15794;BME280;7999;51.208;4.244;2023-02-16T00:13:57;102432.84;;;4.73;100.00
15794;BME280;7999;51.208;4.244;2023-02-16T00:16:24;102424.25;;;4.73;100.00
15794;BME280;7999;51.208;4.244;2023-02-16T00:18:51;102429.69;;;4.79;100.00
15794;BME280;7999;51.208;4.244;2023-02-16T00:21:18;102424.25;;;4.73;100.00
15794;BME280;7999;51.208;4.244;2023-02-16T00:23:45;102420.13;;;4.76;100.00
15794;BME280;7999;51.208;4.244;2023-02-16T00:26:13;102418.94;;;4.70;100.00
15794;BME280;7999;51.208;4.244;2023-02-16T00:28:41;102415.50;;;4.69;100.00
15794;BME280;7999;51.208;4.244;2023-02-16T00:31:14;102411.38;;;4.73;100.00
15794;BME280;7999;51.208;4.244;2023-02-16T00:33:41;102409.44;;;4.69;100.00
15794;BME280;7999;51.208;4.244;2023-02-16T00:36:09;102405.59;;;4.60;100.00
15794;BME280;7999;51.208;4.244;2023-02-16T00:38:35;102410.25;;;4.50;100.00
15794;BME280;7999;51.208;4.244;2023-02-16T00:41:02;102418.34;;;4.57;100.00
15794;BME280;7999;51.208;4.244;2023-02-16T00:43:31;102412.50;;;4.61;100.00
15794;BME280;7999;51.208;4.244;2023-02-16T00:45:58;102410.34;;;4.69;100.00
15794;BME280;7999;51.208;4.244;2023-02-16T00:48:26;102411.22;;;4.70;100.00
15794;BME280;7999;51.208;4.244;2023-02-16T00:50:52;102406.41;;;4.59;100.00
15794;BME280;7999;51.208;4.244;2023-02-16T00:53:19;102399.50;;;4.58;100.00
15794;BME280;7999;51.208;4.244;2023-02-16T00:55:46;102393.09;;;4.50;100.00
15794;BME280;7999;51.208;4.244;2023-02-16T00:58:15;102393.75;;;4.46;100.00
15794;BME280;7999;51.208;4.244;2023-02-16T01:00:46;102386.97;;;4.48;100.00
15794;BME280;7999;51.208;4.244;2023-02-16T01:03:15;102397.94;;;4.44;100.00
15794;BME280;7999;51.208;4.244;2023-02-16T01:05:44;102392.06;;;4.47;100.00
15794;BME280;7999;51.208;4.244;2023-02-16T01:08:12;102396.63;;;4.52;100.00
15794;BME280;7999;51.208;4.244;2023-02-16T01:10:56;102394.84;;;4.51;100.00
15794;BME280;7999;51.208;4.244;2023-02-16T01:13:40;102390.66;;;4.53;100.00
15794;BME280;7999;51.208;4.244;2023-02-16T01:16:12;102386.75;;;4.61;100.00
15794;BME280;7999;51.208;4.244;2023-02-16T01:18:39;102387.63;;;4.62;100.00
15794;BME280;7999;51.208;4.244;2023-02-16T01:21:07;102388.22;;;4.56;100.00
15794;BME280;7999;51.208;4.244;2023-02-16T01:23:34;102378.22;;;4.62;100.00
15794;BME280;7999;51.208;4.244;2023-02-16T01:26:01;102382.06;;;4.53;100.00
15794;BME280;7999;51.208;4.244;2023-02-16T01:28:28;102372.03;;;4.59;100.00
15794;BME280;7999;51.208;4.244;2023-02-16T01:30:55;102378.81;;;4.57;100.00
15794;BME280;7999;51.208;4.244;2023-02-16T01:33:22;102380.59;;;4.58;100.00
15794;BME280;7999;51.208;4.244;2023-02-16T01:35:49;102382.28;;;4.57;100.00
15794;BME280;7999;51.208;4.244;2023-02-16T01:38:18;102378.75;;;4.55;100.00
15794;BME280;7999;51.208;4.244;2023-02-16T01:40:48;102373.31;;;4.49;100.00
15794;BME280;7999;51.208;4.244;2023-02-16T01:43:17;102380.06;;;4.47;100.00
15794;BME280;7999;51.208;4.244;2023-02-16T01:45:46;102384.69;;;4.54;100.00
15794;BME280;7999;51.208;4.244;2023-02-16T01:48:16;102379.56;;;4.54;100.00
15794;BME280;7999;51.208;4.244;2023-02-16T01:50:47;102361.44;;;4.53;100.00
15794;BME280;7999;51.208;4.244;2023-02-16T01:53:19;102360.56;;;4.52;100.00
15794;BME280;7999;51.208;4.244;2023-02-16T01:55:48;102355.72;;;4.58;100.00
15794;BME280;7999;51.208;4.244;2023-02-16T01:58:19;102346.28;;;4.59;100.00
15794;BME280;7999;51.208;4.244;2023-02-16T02:03:35;102338.34;;;4.54;100.00
15794;BME280;7999;51.208;4.244;2023-02-16T02:06:20;102343.22;;;4.48;100.00
15794;BME280;7999;51.208;4.244;2023-02-16T02:08:53;102341.88;;;4.56;100.00
15794;BME280;7999;51.208;4.244;2023-02-16T02:11:25;102337.75;;;4.60;100.00
15794;BME280;7999;51.208;4.244;2023-02-16T02:13:57;102338.50;;;4.57;100.00
15794;BME280;7999;51.208;4.244;2023-02-16T02:16:26;102340.09;;;4.55;100.00
15794;BME280;7999;51.208;4.244;2023-02-16T02:18:53;102337.59;;;4.57;100.00
15794;BME280;7999;51.208;4.244;2023-02-16T02:21:24;102335.91;;;4.57;100.00
15794;BME280;7999;51.208;4.244;2023-02-16T02:24:19;102343.06;;;4.45;100.00
15794;BME280;7999;51.208;4.244;2023-02-16T02:27:01;102341.44;;;4.47;100.00
15794;BME280;7999;51.208;4.244;2023-02-16T02:29:39;102344.81;;;4.46;100.00
15794;BME280;7999;51.208;4.244;2023-02-16T02:32:12;102340.34;;;4.42;100.00
15794;BME280;7999;51.208;4.244;2023-02-16T02:34:46;102332.75;;;4.45;100.00
15794;BME280;7999;51.208;4.244;2023-02-16T02:37:16;102331.56;;;4.56;100.00
15794;BME280;7999;51.208;4.244;2023-02-16T02:39:49;102328.78;;;4.52;100.00
15794;BME280;7999;51.208;4.244;2023-02-16T02:42:28;102318.69;;;4.56;100.00
15794;BME280;7999;51.208;4.244;2023-02-16T02:44:59;102324.81;;;4.58;100.00
15794;BME280;7999;51.208;4.244;2023-02-16T02:47:35;102319.28;;;4.51;100.00
15794;BME280;7999;51.208;4.244;2023-02-16T02:50:02;102329.81;;;4.55;100.00
15794;BME280;7999;51.208;4.244;2023-02-16T02:52:29;102309.94;;;4.71;100.00
15794;BME280;7999;51.208;4.244;2023-02-16T02:54:55;102307.72;;;4.78;100.00
15794;BME280;7999;51.208;4.244;2023-02-16T02:57:41;102309.19;;;4.73;100.00
15794;BME280;7999;51.208;4.244;2023-02-16T03:00:29;102306.56;;;4.72;100.00
15794;BME280;7999;51.208;4.244;2023-02-16T03:03:12;102307.31;;;4.69;100.00
15794;BME280;7999;51.208;4.244;2023-02-16T03:05:43;102297.75;;;4.67;100.00
15794;BME280;7999;51.208;4.244;2023-02-16T03:08:11;102301.41;;;4.72;100.00
15794;BME280;7999;51.208;4.244;2023-02-16T03:10:40;102298.91;;;4.73;100.00
15794;BME280;7999;51.208;4.244;2023-02-16T03:13:27;102292.06;;;4.74;100.00
15794;BME280;7999;51.208;4.244;2023-02-16T03:15:57;102297.75;;;4.67;100.00
15794;BME280;7999;51.208;4.244;2023-02-16T03:18:26;102289.19;;;4.68;100.00
15794;BME280;7999;51.208;4.244;2023-02-16T03:21:11;102298.16;;;4.76;100.00
15794;BME280;7999;51.208;4.244;2023-02-16T03:23:59;102303.16;;;4.73;100.00
15794;BME280;7999;51.208;4.244;2023-02-16T03:26:44;102307.72;;;4.78;100.00
15794;BME280;7999;51.208;4.244;2023-02-16T03:29:30;102310.91;;;4.92;100.00
15794;BME280;7999;51.208;4.244;2023-02-16T03:31:58;102301.50;;;4.92;100.00
15794;BME280;7999;51.208;4.244;2023-02-16T03:34:25;102300.47;;;4.89;100.00
15794;BME280;7999;51.208;4.244;2023-02-16T03:36:53;102298.28;;;4.96;100.00
15794;BME280;7999;51.208;4.244;2023-02-16T03:39:22;102295.38;;;4.90;100.00
15794;BME280;7999;51.208;4.244;2023-02-16T03:41:49;102299.00;;;4.94;100.00
15794;BME280;7999;51.208;4.244;2023-02-16T03:44:17;102294.81;;;4.96;100.00
15794;BME280;7999;51.208;4.244;2023-02-16T03:46:45;102294.63;;;4.93;100.00
15794;BME280;7999;51.208;4.244;2023-02-16T03:49:13;102297.66;;;5.02;100.00
15794;BME280;7999;51.208;4.244;2023-02-16T03:51:40;102300.25;;;5.02;100.00
15794;BME280;7999;51.208;4.244;2023-02-16T03:54:07;102299.84;;;5.12;100.00
15794;BME280;7999;51.208;4.244;2023-02-16T03:56:34;102294.53;;;5.09;100.00
15794;BME280;7999;51.208;4.244;2023-02-16T03:59:00;102297.13;;;5.09;100.00
15794;BME280;7999;51.208;4.244;2023-02-16T04:01:27;102289.53;;;5.12;100.00
15794;BME280;7999;51.208;4.244;2023-02-16T04:03:55;102296.44;;;5.13;100.00
15794;BME280;7999;51.208;4.244;2023-02-16T04:06:22;102274.56;;;5.23;100.00
15794;BME280;7999;51.208;4.244;2023-02-16T04:08:49;102278.16;;;5.26;100.00
15794;BME280;7999;51.208;4.244;2023-02-16T04:11:16;102285.81;;;5.25;100.00
15794;BME280;7999;51.208;4.244;2023-02-16T04:14:00;102301.88;;;5.19;100.00
15794;BME280;7999;51.208;4.244;2023-02-16T04:16:27;102299.66;;;5.27;100.00
15794;BME280;7999;51.208;4.244;2023-02-16T04:18:53;102290.97;;;5.25;100.00
15794;BME280;7999;51.208;4.244;2023-02-16T04:21:22;102295.94;;;5.20;100.00
15794;BME280;7999;51.208;4.244;2023-02-16T04:23:48;102301.09;;;5.20;100.00
15794;BME280;7999;51.208;4.244;2023-02-16T04:26:15;102293.47;;;5.23;100.00
15794;BME280;7999;51.208;4.244;2023-02-16T04:28:42;102294.97;;;5.38;100.00
15794;BME280;7999;51.208;4.244;2023-02-16T04:31:08;102291.44;;;5.36;100.00
15794;BME280;7999;51.208;4.244;2023-02-16T04:33:35;102307.31;;;5.25;100.00
15794;BME280;7999;51.208;4.244;2023-02-16T04:36:02;102300.78;;;5.34;100.00
15794;BME280;7999;51.208;4.244;2023-02-16T04:38:30;102303.19;;;5.29;100.00
15794;BME280;7999;51.208;4.244;2023-02-16T04:40:56;102293.25;;;5.38;100.00
15794;BME280;7999;51.208;4.244;2023-02-16T04:43:23;102285.84;;;5.46;100.00
15794;BME280;7999;51.208;4.244;2023-02-16T04:45:50;102297.03;;;5.46;100.00
15794;BME280;7999;51.208;4.244;2023-02-16T04:48:17;102289.53;;;5.51;100.00
15794;BME280;7999;51.208;4.244;2023-02-16T04:50:44;102279.88;;;5.47;100.00
15794;BME280;7999;51.208;4.244;2023-02-16T04:53:10;102281.38;;;5.42;100.00
15794;BME280;7999;51.208;4.244;2023-02-16T04:55:38;102277.66;;;5.35;100.00
15794;BME280;7999;51.208;4.244;2023-02-16T04:58:05;102280.16;;;5.34;100.00
15794;BME280;7999;51.208;4.244;2023-02-16T05:00:32;102272.50;;;5.35;100.00
15794;BME280;7999;51.208;4.244;2023-02-16T05:02:59;102275.28;;;5.40;100.00
15794;BME280;7999;51.208;4.244;2023-02-16T05:05:26;102275.41;;;5.43;100.00
15794;BME280;7999;51.208;4.244;2023-02-16T05:07:55;102271.63;;;5.35;100.00
15794;BME280;7999;51.208;4.244;2023-02-16T05:10:25;102262.00;;;5.31;100.00
15794;BME280;7999;51.208;4.244;2023-02-16T05:12:53;102265.56;;;5.34;100.00
15794;BME280;7999;51.208;4.244;2023-02-16T05:15:38;102269.09;;;5.36;100.00
15794;BME280;7999;51.208;4.244;2023-02-16T05:18:04;102265.50;;;5.33;100.00
15794;BME280;7999;51.208;4.244;2023-02-16T05:20:31;102265.78;;;5.39;100.00
15794;BME280;7999;51.208;4.244;2023-02-16T05:23:16;102255.75;;;5.25;100.00
15794;BME280;7999;51.208;4.244;2023-02-16T05:25:42;102257.16;;;5.38;100.00
15794;BME280;7999;51.208;4.244;2023-02-16T05:28:10;102245.97;;;5.38;100.00
15794;BME280;7999;51.208;4.244;2023-02-16T05:30:37;102235.78;;;5.41;100.00
15794;BME280;7999;51.208;4.244;2023-02-16T05:33:04;102247.84;;;5.42;100.00
15794;BME280;7999;51.208;4.244;2023-02-16T05:35:32;102261.16;;;5.32;100.00
15794;BME280;7999;51.208;4.244;2023-02-16T05:37:59;102272.63;;;5.38;100.00
15794;BME280;7999;51.208;4.244;2023-02-16T05:40:25;102265.66;;;5.36;100.00
15794;BME280;7999;51.208;4.244;2023-02-16T05:42:52;102275.13;;;5.37;100.00
15794;BME280;7999;51.208;4.244;2023-02-16T05:45:20;102281.13;;;5.36;100.00
15794;BME280;7999;51.208;4.244;2023-02-16T05:47:47;102293.38;;;5.41;100.00
15794;BME280;7999;51.208;4.244;2023-02-16T05:50:14;102297.72;;;5.42;100.00
15794;BME280;7999;51.208;4.244;2023-02-16T05:52:41;102296.16;;;5.46;100.00
15794;BME280;7999;51.208;4.244;2023-02-16T05:55:07;102288.28;;;5.43;100.00
15794;BME280;7999;51.208;4.244;2023-02-16T05:57:34;102278.41;;;5.52;100.00
15794;BME280;7999;51.208;4.244;2023-02-16T06:00:02;102279.75;;;5.44;100.00
15794;BME280;7999;51.208;4.244;2023-02-16T06:02:31;102284.88;;;5.63;100.00
15794;BME280;7999;51.208;4.244;2023-02-16T06:04:57;102287.91;;;5.53;100.00
15794;BME280;7999;51.208;4.244;2023-02-16T06:07:24;102287.09;;;5.54;100.00
15794;BME280;7999;51.208;4.244;2023-02-16T06:09:51;102280.91;;;5.50;100.00
15794;BME280;7999;51.208;4.244;2023-02-16T06:12:18;102287.47;;;5.44;100.00
15794;BME280;7999;51.208;4.244;2023-02-16T06:14:45;102283.50;;;5.50;100.00
15794;BME280;7999;51.208;4.244;2023-02-16T06:17:11;102282.75;;;5.53;100.00
15794;BME280;7999;51.208;4.244;2023-02-16T06:19:39;102292.78;;;5.47;100.00
15794;BME280;7999;51.208;4.244;2023-02-16T06:22:06;102281.72;;;5.49;100.00
15794;BME280;7999;51.208;4.244;2023-02-16T06:24:33;102284.50;;;5.54;100.00
15794;BME280;7999;51.208;4.244;2023-02-16T06:26:59;102290.41;;;5.51;100.00
15794;BME280;7999;51.208;4.244;2023-02-16T06:29:26;102288.41;;;5.65;100.00
15794;BME280;7999;51.208;4.244;2023-02-16T06:31:53;102290.38;;;5.71;100.00
15794;BME280;7999;51.208;4.244;2023-02-16T06:34:19;102296.84;;;5.61;100.00
15794;BME280;7999;51.208;4.244;2023-02-16T06:36:47;102307.84;;;5.57;100.00
15794;BME280;7999;51.208;4.244;2023-02-16T06:39:14;102303.50;;;5.56;100.00
15794;BME280;7999;51.208;4.244;2023-02-16T06:41:41;102304.59;;;5.61;100.00
15794;BME280;7999;51.208;4.244;2023-02-16T06:44:08;102309.06;;;5.65;100.00
15794;BME280;7999;51.208;4.244;2023-02-16T06:46:36;102307.41;;;5.67;100.00
15794;BME280;7999;51.208;4.244;2023-02-16T06:49:03;102313.41;;;5.66;100.00
15794;BME280;7999;51.208;4.244;2023-02-16T06:51:30;102303.06;;;5.66;100.00
15794;BME280;7999;51.208;4.244;2023-02-16T06:53:58;102301.88;;;5.58;100.00
15794;BME280;7999;51.208;4.244;2023-02-16T06:56:25;102301.88;;;5.58;100.00
15794;BME280;7999;51.208;4.244;2023-02-16T06:58:52;102315.72;;;5.60;100.00
15794;BME280;7999;51.208;4.244;2023-02-16T07:01:18;102307.41;;;5.67;100.00
15794;BME280;7999;51.208;4.244;2023-02-16T07:03:47;102314.09;;;5.62;100.00
15794;BME280;7999;51.208;4.244;2023-02-16T07:06:14;102315.91;;;5.65;100.00
15794;BME280;7999;51.208;4.244;2023-02-16T07:08:41;102319.25;;;5.62;100.00
15794;BME280;7999;51.208;4.244;2023-02-16T07:11:09;102316.09;;;5.69;100.00
15794;BME280;7999;51.208;4.244;2023-02-16T07:13:36;102322.91;;;5.67;100.00
15794;BME280;7999;51.208;4.244;2023-02-16T07:16:03;102313.88;;;5.77;100.00
15794;BME280;7999;51.208;4.244;2023-02-16T07:18:30;102312.72;;;5.70;100.00
15794;BME280;7999;51.208;4.244;2023-02-16T07:20:57;102310.19;;;5.72;100.00
15794;BME280;7999;51.208;4.244;2023-02-16T07:23:23;102305.16;;;5.75;100.00
15794;BME280;7999;51.208;4.244;2023-02-16T07:25:50;102315.63;;;5.78;100.00
15794;BME280;7999;51.208;4.244;2023-02-16T07:28:18;102320.13;;;5.63;100.00
15794;BME280;7999;51.208;4.244;2023-02-16T07:30:45;102319.38;;;5.65;100.00
15794;BME280;7999;51.208;4.244;2023-02-16T07:33:13;102321.00;;;5.82;100.00
15794;BME280;7999;51.208;4.244;2023-02-16T07:35:40;102316.78;;;5.84;100.00
15794;BME280;7999;51.208;4.244;2023-02-16T07:38:07;102327.09;;;5.84;100.00
15794;BME280;7999;51.208;4.244;2023-02-16T07:40:34;102328.72;;;5.82;100.00
15794;BME280;7999;51.208;4.244;2023-02-16T07:43:01;102330.78;;;5.89;100.00
15794;BME280;7999;51.208;4.244;2023-02-16T07:45:30;102336.00;;;5.91;100.00
15794;BME280;7999;51.208;4.244;2023-02-16T07:47:58;102342.88;;;5.91;100.00
15794;BME280;7999;51.208;4.244;2023-02-16T07:50:24;102339.19;;;6.05;100.00
15794;BME280;7999;51.208;4.244;2023-02-16T07:52:51;102342.97;;;6.13;100.00
15794;BME280;7999;51.208;4.244;2023-02-16T07:55:18;102341.22;;;6.12;100.00
15794;BME280;7999;51.208;4.244;2023-02-16T07:57:45;102350.47;;;6.07;100.00
15794;BME280;7999;51.208;4.244;2023-02-16T08:00:13;102355.88;;;6.13;100.00
15794;BME280;7999;51.208;4.244;2023-02-16T08:02:42;102354.00;;;6.09;100.00
15794;BME280;7999;51.208;4.244;2023-02-16T08:05:08;102359.53;;;6.18;100.00
15794;BME280;7999;51.208;4.244;2023-02-16T08:07:35;102355.50;;;6.25;100.00
15794;BME280;7999;51.208;4.244;2023-02-16T08:10:06;102356.50;;;6.28;100.00
15794;BME280;7999;51.208;4.244;2023-02-16T08:12:33;102348.09;;;6.32;100.00
15794;BME280;7999;51.208;4.244;2023-02-16T08:15:00;102345.44;;;6.31;100.00
15794;BME280;7999;51.208;4.244;2023-02-16T08:17:29;102354.13;;;6.33;100.00
15794;BME280;7999;51.208;4.244;2023-02-16T08:19:58;102360.53;;;6.22;100.00
15794;BME280;7999;51.208;4.244;2023-02-16T08:22:24;102361.53;;;6.25;100.00
15794;BME280;7999;51.208;4.244;2023-02-16T08:24:51;102350.44;;;6.28;100.00
15794;BME280;7999;51.208;4.244;2023-02-16T08:27:18;102353.97;;;6.30;100.00
15794;BME280;7999;51.208;4.244;2023-02-16T08:29:45;102349.72;;;6.30;100.00
15794;BME280;7999;51.208;4.244;2023-02-16T08:32:12;102349.97;;;6.36;100.00
15794;BME280;7999;51.208;4.244;2023-02-16T08:34:39;102350.09;;;6.39;100.00
15794;BME280;7999;51.208;4.244;2023-02-16T08:37:09;102359.91;;;6.27;100.00
15794;BME280;7999;51.208;4.244;2023-02-16T08:39:37;102363.06;;;6.20;100.00
15794;BME280;7999;51.208;4.244;2023-02-16T08:42:04;102363.06;;;6.20;100.00
15794;BME280;7999;51.208;4.244;2023-02-16T08:44:30;102355.63;;;6.28;100.00
15794;BME280;7999;51.208;4.244;2023-02-16T08:46:58;102364.47;;;6.33;100.00
15794;BME280;7999;51.208;4.244;2023-02-16T08:49:25;102376.09;;;6.44;100.00
15794;BME280;7999;51.208;4.244;2023-02-16T08:51:53;102382.31;;;6.28;100.00
15794;BME280;7999;51.208;4.244;2023-02-16T08:54:22;102379.19;;;6.35;100.00
15794;BME280;7999;51.208;4.244;2023-02-16T08:56:51;102382.16;;;6.44;100.00
15794;BME280;7999;51.208;4.244;2023-02-16T08:59:19;102376.03;;;6.42;100.00
15794;BME280;7999;51.208;4.244;2023-02-16T09:01:46;102378.06;;;6.49;100.00
15794;BME280;7999;51.208;4.244;2023-02-16T09:04:13;102367.06;;;6.55;100.00
15794;BME280;7999;51.208;4.244;2023-02-16T09:06:42;102377.09;;;6.47;100.00
15794;BME280;7999;51.208;4.244;2023-02-16T09:09:09;102378.19;;;6.53;100.00
15794;BME280;7999;51.208;4.244;2023-02-16T09:11:39;102383.34;;;6.53;100.00
15794;BME280;7999;51.208;4.244;2023-02-16T09:14:06;102383.09;;;6.67;100.00
15794;BME280;7999;51.208;4.244;2023-02-16T09:16:35;102376.47;;;6.53;100.00
15794;BME280;7999;51.208;4.244;2023-02-16T09:19:03;102374.75;;;6.54;100.00
15794;BME280;7999;51.208;4.244;2023-02-16T09:21:30;102375.03;;;6.60;100.00
15794;BME280;7999;51.208;4.244;2023-02-16T09:23:58;102371.00;;;6.66;100.00
15794;BME280;7999;51.208;4.244;2023-02-16T09:26:26;102369.53;;;6.73;100.00
15794;BME280;7999;51.208;4.244;2023-02-16T09:28:57;102372.69;;;6.66;100.00
15794;BME280;7999;51.208;4.244;2023-02-16T09:31:25;102365.94;;;6.69;100.00
15794;BME280;7999;51.208;4.244;2023-02-16T09:33:53;102372.34;;;6.79;100.00
15794;BME280;7999;51.208;4.244;2023-02-16T09:36:20;102362.84;;;6.78;100.00
15794;BME280;7999;51.208;4.244;2023-02-16T09:38:47;102363.41;;;6.71;100.00
15794;BME280;7999;51.208;4.244;2023-02-16T09:41:18;102364.31;;;6.71;100.00
15794;BME280;7999;51.208;4.244;2023-02-16T09:43:48;102360.25;;;6.78;100.00
15794;BME280;7999;51.208;4.244;2023-02-16T09:46:19;102365.88;;;6.68;100.00
15794;BME280;7999;51.208;4.244;2023-02-16T09:48:47;102364.81;;;6.63;100.00
15794;BME280;7999;51.208;4.244;2023-02-16T09:51:18;102369.88;;;6.60;100.00
15794;BME280;7999;51.208;4.244;2023-02-16T09:53:58;102378.81;;;6.68;100.00
15794;BME280;7999;51.208;4.244;2023-02-16T09:56:27;102381.28;;;6.65;100.00
15794;BME280;7999;51.208;4.244;2023-02-16T09:58:57;102387.75;;;6.76;100.00
15794;BME280;7999;51.208;4.244;2023-02-16T10:01:32;102380.88;;;6.76;100.00
15794;BME280;7999;51.208;4.244;2023-02-16T10:04:15;102378.50;;;6.82;100.00
15794;BME280;7999;51.208;4.244;2023-02-16T10:06:50;102377.03;;;6.88;100.00
15794;BME280;7999;51.208;4.244;2023-02-16T10:09:22;102376.84;;;7.05;100.00
15794;BME280;7999;51.208;4.244;2023-02-16T10:11:54;102372.72;;;7.10;100.00
15794;BME280;7999;51.208;4.244;2023-02-16T10:14:24;102372.59;;;7.30;100.00
15794;BME280;7999;51.208;4.244;2023-02-16T10:16:58;102372.94;;;7.39;100.00
15794;BME280;7999;51.208;4.244;2023-02-16T10:19:27;102367.50;;;7.55;100.00
15794;BME280;7999;51.208;4.244;2023-02-16T10:21:57;102370.09;;;7.55;100.00
15794;BME280;7999;51.208;4.244;2023-02-16T10:24:26;102369.66;;;7.43;100.00
15794;BME280;7999;51.208;4.244;2023-02-16T10:26:56;102376.06;;;7.77;100.00
15794;BME280;7999;51.208;4.244;2023-02-16T10:29:26;102380.50;;;7.81;100.00
15794;BME280;7999;51.208;4.244;2023-02-16T10:31:55;102379.78;;;7.85;100.00
15794;BME280;7999;51.208;4.244;2023-02-16T10:34:30;102378.34;;;7.93;100.00
15794;BME280;7999;51.208;4.244;2023-02-16T10:37:03;102376.72;;;7.95;100.00
15794;BME280;7999;51.208;4.244;2023-02-16T10:39:37;102359.59;;;8.24;100.00
15794;BME280;7999;51.208;4.244;2023-02-16T10:42:12;102362.38;;;8.04;100.00
15794;BME280;7999;51.208;4.244;2023-02-16T10:44:42;102354.44;;;8.00;100.00
15794;BME280;7999;51.208;4.244;2023-02-16T10:47:12;102351.47;;;8.15;100.00
15794;BME280;7999;51.208;4.244;2023-02-16T10:49:47;102342.88;;;8.41;100.00
15794;BME280;7999;51.208;4.244;2023-02-16T10:52:15;102344.47;;;8.63;100.00
15794;BME280;7999;51.208;4.244;2023-02-16T10:54:42;102342.53;;;8.56;100.00
15794;BME280;7999;51.208;4.244;2023-02-16T10:57:11;102328.53;;;8.51;100.00
15794;BME280;7999;51.208;4.244;2023-02-16T10:59:46;102323.63;;;8.60;100.00
15794;BME280;7999;51.208;4.244;2023-02-16T11:02:16;102320.66;;;8.76;100.00
15794;BME280;7999;51.208;4.244;2023-02-16T11:04:44;102323.38;;;8.79;100.00
15794;BME280;7999;51.208;4.244;2023-02-16T11:07:13;102314.78;;;8.80;100.00
15794;BME280;7999;51.208;4.244;2023-02-16T11:09:42;102312.19;;;8.80;100.00
15794;BME280;7999;51.208;4.244;2023-02-16T11:12:16;102319.81;;;9.04;100.00
15794;BME280;7999;51.208;4.244;2023-02-16T11:14:47;102313.25;;;8.60;100.00
15794;BME280;7999;51.208;4.244;2023-02-16T11:17:15;102315.59;;;8.79;100.00
15794;BME280;7999;51.208;4.244;2023-02-16T11:19:46;102316.13;;;8.97;100.00
15794;BME280;7999;51.208;4.244;2023-02-16T11:22:24;102322.72;;;9.15;100.00
15794;BME280;7999;51.208;4.244;2023-02-16T11:24:52;102315.91;;;9.18;100.00
15794;BME280;7999;51.208;4.244;2023-02-16T11:27:19;102302.78;;;9.14;100.00
15794;BME280;7999;51.208;4.244;2023-02-16T11:29:47;102301.81;;;9.40;100.00
15794;BME280;7999;51.208;4.244;2023-02-16T11:32:18;102300.97;;;9.73;100.00
15794;BME280;7999;51.208;4.244;2023-02-16T11:34:46;102297.84;;;9.53;100.00
15794;BME280;7999;51.208;4.244;2023-02-16T11:37:14;102289.31;;;9.58;100.00
15794;BME280;7999;51.208;4.244;2023-02-16T11:39:48;102286.84;;;9.62;100.00
15794;BME280;7999;51.208;4.244;2023-02-16T11:42:19;102293.09;;;9.70;100.00
15794;BME280;7999;51.208;4.244;2023-02-16T11:44:51;102285.88;;;9.91;100.00
15794;BME280;7999;51.208;4.244;2023-02-16T11:47:24;102295.13;;;10.14;100.00
15794;BME280;7999;51.208;4.244;2023-02-16T11:50:06;102289.06;;;10.14;100.00
15794;BME280;7999;51.208;4.244;2023-02-16T11:52:33;102284.41;;;10.02;100.00
15794;BME280;7999;51.208;4.244;2023-02-16T11:55:01;102272.88;;;10.24;100.00
15794;BME280;7999;51.208;4.244;2023-02-16T11:57:29;102268.97;;;10.08;100.00
15794;BME280;7999;51.208;4.244;2023-02-16T11:59:56;102265.41;;;10.39;100.00
15794;BME280;7999;51.208;4.244;2023-02-16T12:05:13;102270.59;;;10.75;100.00
15794;BME280;7999;51.208;4.244;2023-02-16T12:07:44;102270.34;;;10.66;100.00
15794;BME280;7999;51.208;4.244;2023-02-16T12:10:16;102266.00;;;10.65;100.00
15794;BME280;7999;51.208;4.244;2023-02-16T12:12:47;102263.56;;;10.71;100.00
15794;BME280;7999;51.208;4.244;2023-02-16T12:15:17;102265.56;;;10.84;100.00
15794;BME280;7999;51.208;4.244;2023-02-16T12:18:00;102260.69;;;11.00;100.00
15794;BME280;7999;51.208;4.244;2023-02-16T12:20:33;102267.50;;;10.95;100.00
15794;BME280;7999;51.208;4.244;2023-02-16T12:23:03;102259.44;;;10.81;100.00
15794;BME280;7999;51.208;4.244;2023-02-16T12:25:37;102250.94;;;10.90;100.00
15794;BME280;7999;51.208;4.244;2023-02-16T12:28:10;102252.00;;;10.98;100.00
15794;BME280;7999;51.208;4.244;2023-02-16T12:30:44;102240.69;;;10.96;100.00
15794;BME280;7999;51.208;4.244;2023-02-16T12:33:20;102239.94;;;11.03;100.00
15794;BME280;7999;51.208;4.244;2023-02-16T12:38:40;102237.00;;;10.88;100.00
15794;BME280;7999;51.208;4.244;2023-02-16T12:41:12;102234.84;;;11.09;100.00
15794;BME280;7999;51.208;4.244;2023-02-16T12:43:43;102215.38;;;11.34;100.00
15794;BME280;7999;51.208;4.244;2023-02-16T12:46:13;102216.25;;;11.34;100.00
15794;BME280;7999;51.208;4.244;2023-02-16T12:48:41;102222.16;;;11.24;100.00
15794;BME280;7999;51.208;4.244;2023-02-16T12:51:13;102223.44;;;11.48;100.00
15794;BME280;7999;51.208;4.244;2023-02-16T12:53:42;102213.34;;;11.66;100.00
15794;BME280;7999;51.208;4.244;2023-02-16T12:56:11;102223.88;;;11.72;100.00
15794;BME280;7999;51.208;4.244;2023-02-16T12:58:42;102225.13;;;11.45;100.00
15794;BME280;7999;51.208;4.244;2023-02-16T13:01:12;102220.72;;;11.41;100.00
15794;BME280;7999;51.208;4.244;2023-02-16T13:03:43;102220.97;;;11.54;100.00
15794;BME280;7999;51.208;4.244;2023-02-16T13:06:14;102214.22;;;11.66;100.00
15794;BME280;7999;51.208;4.244;2023-02-16T13:08:44;102210.50;;;11.51;100.00
15794;BME280;7999;51.208;4.244;2023-02-16T13:11:16;102205.19;;;11.46;100.00
15794;BME280;7999;51.208;4.244;2023-02-16T13:13:45;102211.25;;;11.46;100.00
15794;BME280;7999;51.208;4.244;2023-02-16T13:16:15;102198.72;;;11.74;100.00
15794;BME280;7999;51.208;4.244;2023-02-16T13:18:43;102187.97;;;11.54;100.00
15794;BME280;7999;51.208;4.244;2023-02-16T13:21:14;102195.88;;;11.59;100.00